Terminal Aerodrome Forecast
Issued by NWS

Current Version | Previous Version | Text Only | Print | Product List | Glossary On
Versions: 1 2 3 4 5 6 7 8 9 10 11 12 13 14 15 16 17 18 19
000
FTPA31 PHFO 280545
TAFHKO
TAF
PHKO 280545Z 2806/2906 15005KT P6SM SCT025 BKN050
     FM280900 VRB03KT P6SM VCSH SCT025 BKN050
     FM281500 VRB03KT P6SM SCT025
     FM282000 21010KT P6SM SCT050
     FM290300 21010KT P6SM SCT025 BKN050=

USA.gov is the U.S. government's official web portal to all federal, state and local government web resources and services.